Time;durP1;ratioP1;P1;durP2;ratioP2;P2;SDS_P1;SDS_P2;PMS_P1;PMS_P2;Temp;Humidity;BMP_temperature;BMP_pressure;BME280_temperature;BME280_humidity;BME280_pressure;Samples;Min_cycle;Max_cycle;Signal;HPM_P1;HPM_P2
2021/11/12 00:14:01;;;;;;;0.52;0.20;;;;;;;;;;4165642;28;20066;-34
2021/11/12 00:16:04;;;;;;;0.55;0.30;;;;;;;;;;4165102;28;20060;-32
2021/11/12 00:18:05;;;;;;;0.30;0.20;;;;;;;;;;4165299;28;20406;-33
2021/11/12 00:20:08;;;;;;;0.60;0.15;;;;;;;;;;4171610;28;20566;-34
2021/11/12 00:22:09;;;;;;;0.32;0.20;;;;;;;;;;4181750;28;20049;-31
2021/11/12 00:24:10;;;;;;;0.22;0.10;;;;;;;;;;4181867;28;20064;-32
2021/11/12 00:26:12;;;;;;;0.20;0.10;;;;;;;;;;4181716;28;20552;-34
2021/11/12 00:28:16;;;;;;;0.70;0.25;;;;;;;;;;4181701;28;20087;-32
2021/11/12 00:41:57;;;;;;;0.30;0.20;;;;;;;;;;4181633;28;20070;-33
2021/11/12 00:46:40;;;;;;;0.30;0.20;;;;;;;;;;4181032;28;20060;-33
2021/11/12 00:48:47;;;;;;;0.20;0.10;;;;;;;;;;4181445;28;20052;-31
2021/11/12 00:54:52;;;;;;;0.68;0.10;;;;;;;;;;4180745;28;20339;-31
2021/11/12 00:56:53;;;;;;;0.30;0.20;;;;;;;;;;4180987;28;20446;-36
2021/11/12 00:58:57;;;;;;;0.30;0.10;;;;;;;;;;4181250;28;20052;-32
2021/11/12 01:00:59;;;;;;;0.60;0.20;;;;;;;;;;4179363;28;20410;-33
2021/11/12 01:03:00;;;;;;;0.30;0.10;;;;;;;;;;4163299;28;20510;-31
2021/11/12 01:05:03;;;;;;;0.10;0.10;;;;;;;;;;4181000;28;20053;-32
2021/11/12 01:07:04;;;;;;;0.28;0.10;;;;;;;;;;4180322;28;20110;-32
2021/11/12 01:09:11;;;;;;;0.88;0.30;;;;;;;;;;4177508;28;20068;-33
2021/11/12 01:11:13;;;;;;;0.25;0.13;;;;;;;;;;4168773;28;20058;-31
2021/11/12 01:13:14;;;;;;;0.52;0.10;;;;;;;;;;4178946;28;20049;-32
2021/11/12 01:15:16;;;;;;;0.30;0.15;;;;;;;;;;4180437;28;20056;-34
2021/11/12 01:17:17;;;;;;;0.30;0.10;;;;;;;;;;4180558;28;20459;-34
2021/11/12 01:19:19;;;;;;;0.20;0.13;;;;;;;;;;4180028;28;20056;-34
2021/11/12 01:21:20;;;;;;;0.70;0.17;;;;;;;;;;4164244;28;20057;-32
2021/11/12 01:23:23;;;;;;;0.38;0.20;;;;;;;;;;4163288;28;20053;-36
2021/11/12 01:25:25;;;;;;;0.10;0.10;;;;;;;;;;4161144;28;20066;-37
2021/11/12 01:27:27;;;;;;;0.20;0.10;;;;;;;;;;4152889;28;20053;-32
2021/11/12 01:29:28;;;;;;;0.43;0.10;;;;;;;;;;4163802;28;20556;-33
2021/11/12 01:31:30;;;;;;;0.28;0.10;;;;;;;;;;4163743;28;20102;-33
2021/11/12 01:33:31;;;;;;;0.30;0.10;;;;;;;;;;4163616;28;20108;-33
2021/11/12 01:35:33;;;;;;;0.28;0.10;;;;;;;;;;4163860;28;20053;-35
2021/11/12 01:37:35;;;;;;;0.93;0.20;;;;;;;;;;4163375;28;20061;-31
2021/11/12 01:39:36;;;;;;;0.20;0.10;;;;;;;;;;4163836;28;20049;-33
2021/11/12 01:41:44;;;;;;;0.08;0.08;;;;;;;;;;4145379;28;20062;-31
2021/11/12 01:43:48;;;;;;;0.10;0.10;;;;;;;;;;4146908;28;20065;-32
2021/11/12 01:46:02;;;;;;;0.20;0.10;;;;;;;;;;4150176;28;20060;-33
2021/11/12 01:50:21;;;;;;;0.10;0.03;;;;;;;;;;4163619;28;20072;-37
2021/11/12 01:52:34;;;;;;;0.43;0.10;;;;;;;;;;4163470;28;20494;-34
2021/11/12 01:54:46;;;;;;;0.00;0.00;;;;;;;;;;4163465;28;20107;-33
2021/11/12 01:59:09;;;;;;;0.30;0.10;;;;;;;;;;4155688;28;20103;-32
2021/11/12 02:01:10;;;;;;;0.08;0.03;;;;;;;;;;4163853;28;20123;-33
2021/11/12 02:03:12;;;;;;;0.25;0.10;;;;;;;;;;4163257;28;20156;-34
2021/11/12 02:05:14;;;;;;;0.20;0.10;;;;;;;;;;4163664;28;20053;-31
2021/11/12 02:07:15;;;;;;;0.20;0.03;;;;;;;;;;4163488;28;20075;-33
2021/11/12 02:09:21;;;;;;;0.15;0.10;;;;;;;;;;4163199;28;20057;-32
2021/11/12 02:11:22;;;;;;;0.10;0.10;;;;;;;;;;4161943;28;20053;-32
2021/11/12 02:13:25;;;;;;;0.10;0.10;;;;;;;;;;4163296;28;20053;-33
2021/11/12 02:15:27;;;;;;;0.13;0.08;;;;;;;;;;4145950;28;20096;-31
2021/11/12 02:17:31;;;;;;;0.20;0.20;;;;;;;;;;4163207;28;20049;-32
2021/11/12 02:19:35;;;;;;;0.17;0.17;;;;;;;;;;4164821;28;20061;-33
2021/11/12 02:21:48;;;;;;;0.38;0.10;;;;;;;;;;4180030;28;20056;-34
2021/11/12 02:25:58;;;;;;;0.10;0.10;;;;;;;;;;4179669;28;20493;-31
2021/11/12 02:28:08;;;;;;;0.15;0.03;;;;;;;;;;4179430;28;20053;-31
2021/11/12 02:30:16;;;;;;;0.35;0.10;;;;;;;;;;4179905;28;20056;-32
2021/11/12 02:32:19;;;;;;;0.00;0.00;;;;;;;;;;4179999;28;20098;-33
2021/11/12 02:34:21;;;;;;;0.25;0.20;;;;;;;;;;4179688;28;20068;-35
2021/11/12 02:36:22;;;;;;;0.90;0.17;;;;;;;;;;4179638;28;20098;-34
2021/11/12 02:38:24;;;;;;;0.32;0.10;;;;;;;;;;4161224;28;20057;-33
2021/11/12 02:40:26;;;;;;;0.10;0.10;;;;;;;;;;4179372;28;20057;-33
2021/11/12 02:42:27;;;;;;;0.20;0.15;;;;;;;;;;4179356;28;20045;-31
2021/11/12 02:44:33;;;;;;;0.50;0.20;;;;;;;;;;4179375;28;20045;-32
2021/11/12 02:46:35;;;;;;;0.20;0.10;;;;;;;;;;4179614;28;20056;-32
2021/11/12 02:48:37;;;;;;;0.22;0.13;;;;;;;;;;4179669;28;20061;-36
2021/11/12 02:50:39;;;;;;;0.10;0.10;;;;;;;;;;4179430;28;20057;-31
2021/11/12 02:52:42;;;;;;;0.47;0.30;;;;;;;;;;4179112;28;20053;-34
2021/11/12 02:54:43;;;;;;;0.00;0.00;;;;;;;;;;4182708;28;20065;-35
2021/11/12 02:56:44;;;;;;;0.75;0.10;;;;;;;;;;4182608;28;20061;-33
2021/11/12 02:58:50;;;;;;;0.00;0.00;;;;;;;;;;4182594;28;20056;-33
2021/11/12 03:00:51;;;;;;;0.22;0.10;;;;;;;;;;4183146;28;20111;-33
2021/11/12 03:02:53;;;;;;;0.00;0.00;;;;;;;;;;4182589;28;20435;-35
2021/11/12 03:04:55;;;;;;;0.35;0.10;;;;;;;;;;4182769;28;20049;-32
2021/11/12 03:06:57;;;;;;;0.30;0.13;;;;;;;;;;4177905;28;20084;-32
2021/11/12 03:09:03;;;;;;;0.10;0.08;;;;;;;;;;4172943;28;20049;-36
2021/11/12 03:11:23;;;;;;;0.00;0.00;;;;;;;;;;4183221;28;20060;-32
2021/11/12 03:13:25;;;;;;;0.45;0.20;;;;;;;;;;4182254;28;20057;-32
2021/11/12 03:15:26;;;;;;;0.10;0.10;;;;;;;;;;4182709;28;20060;-33
2021/11/12 03:17:27;;;;;;;0.35;0.10;;;;;;;;;;4182603;28;20126;-36
2021/11/12 03:19:30;;;;;;;0.30;0.30;;;;;;;;;;4182291;28;20106;-34
2021/11/12 03:21:32;;;;;;;0.47;0.20;;;;;;;;;;4182531;28;20049;-31
2021/11/12 03:23:41;;;;;;;0.10;0.10;;;;;;;;;;4163853;28;20521;-39
2021/11/12 03:30:42;;;;;;;0.50;0.20;;;;;;;;;;4189261;28;19930;-32
2021/11/12 04:30:49;;;;;;;0.08;0.08;;;;;;;;;;4181271;28;20053;-32
2021/11/12 04:49:22;;;;;;;0.10;0.10;;;;;;;;;;4181230;28;19921;-32
2021/11/12 05:44:28;;;;;;;0.30;0.10;;;;;;;;;;4180090;28;20061;-31
2021/11/12 05:46:41;;;;;;;0.10;0.10;;;;;;;;;;4180483;28;20061;-32
2021/11/12 05:51:23;;;;;;;0.30;0.10;;;;;;;;;;4180610;28;20071;-32
2021/11/12 05:55:43;;;;;;;0.50;0.10;;;;;;;;;;4180202;28;20057;-32
2021/11/12 05:57:44;;;;;;;0.25;0.10;;;;;;;;;;4180332;28;20126;-32
2021/11/12 05:59:46;;;;;;;0.10;0.10;;;;;;;;;;4180187;28;20142;-34
2021/11/12 06:01:48;;;;;;;0.00;0.00;;;;;;;;;;4180447;28;20057;-32
2021/11/12 06:03:49;;;;;;;0.10;0.10;;;;;;;;;;4179911;28;20477;-32
2021/11/12 06:05:50;;;;;;;0.10;0.10;;;;;;;;;;4170850;28;20053;-32
2021/11/12 06:07:52;;;;;;;0.10;0.10;;;;;;;;;;4172485;28;20072;-31
2021/11/12 06:09:53;;;;;;;0.00;0.00;;;;;;;;;;4167673;28;20060;-37
2021/11/12 06:11:54;;;;;;;0.10;0.10;;;;;;;;;;4171013;28;20104;-33
2021/11/12 06:13:57;;;;;;;0.57;0.17;;;;;;;;;;4178498;28;20045;-31
2021/11/12 06:15:59;;;;;;;0.08;0.00;;;;;;;;;;4177308;28;20489;-34
2021/11/12 06:18:00;;;;;;;0.00;0.00;;;;;;;;;;4156394;28;20061;-32
2021/11/12 06:20:04;;;;;;;0.00;0.00;;;;;;;;;;4160671;28;21097;-35
2021/11/12 06:22:06;;;;;;;0.30;0.10;;;;;;;;;;4168477;28;20049;-32
2021/11/12 06:24:07;;;;;;;0.55;0.30;;;;;;;;;;4170055;28;20077;-32
2021/11/12 06:26:08;;;;;;;0.22;0.10;;;;;;;;;;4169255;28;20497;-36
2021/11/12 06:28:09;;;;;;;0.10;0.10;;;;;;;;;;4167477;28;20057;-33
2021/11/12 06:30:11;;;;;;;0.10;0.10;;;;;;;;;;4171407;28;20052;-35
2021/11/12 06:32:12;;;;;;;0.30;0.10;;;;;;;;;;4162268;28;20096;-32
2021/11/12 06:34:14;;;;;;;0.20;0.10;;;;;;;;;;4173948;28;20098;-35
2021/11/12 06:36:16;;;;;;;0.25;0.13;;;;;;;;;;4174249;28;20064;-32
2021/11/12 06:38:21;;;;;;;1.65;0.10;;;;;;;;;;4168619;28;20390;-38
2021/11/12 06:40:22;;;;;;;0.40;0.10;;;;;;;;;;4166640;28;20052;-32
2021/11/12 06:42:25;;;;;;;0.22;0.10;;;;;;;;;;4167970;28;20056;-36
2021/11/12 06:49:27;;;;;;;0.32;0.10;;;;;;;;;;4171158;28;20122;-34
2021/11/12 06:51:29;;;;;;;0.15;0.10;;;;;;;;;;4174292;28;20068;-33
2021/11/12 06:53:30;;;;;;;0.10;0.10;;;;;;;;;;4164947;28;20393;-34
2021/11/12 06:55:31;;;;;;;0.25;0.10;;;;;;;;;;4167772;28;20049;-33
2021/11/12 06:57:32;;;;;;;0.50;0.17;;;;;;;;;;4172053;28;20105;-32
2021/11/12 06:59:34;;;;;;;0.65;0.28;;;;;;;;;;4160805;28;20111;-35
2021/11/12 07:01:35;;;;;;;0.55;0.20;;;;;;;;;;4165630;28;20060;-32
2021/11/12 07:03:37;;;;;;;0.40;0.20;;;;;;;;;;4166941;28;20496;-33
2021/11/12 07:05:38;;;;;;;0.80;0.25;;;;;;;;;;4166182;28;20098;-31
2021/11/12 07:07:39;;;;;;;1.67;0.30;;;;;;;;;;4177415;28;20068;-32
2021/11/12 07:09:42;;;;;;;0.50;0.30;;;;;;;;;;4156364;28;20112;-31
2021/11/12 07:11:43;;;;;;;1.90;0.50;;;;;;;;;;4168994;28;20344;-34
2021/11/12 07:13:45;;;;;;;2.75;0.30;;;;;;;;;;4163658;28;20049;-33
2021/11/12 07:15:46;;;;;;;3.30;0.43;;;;;;;;;;4166354;28;20071;-38
2021/11/12 07:17:47;;;;;;;0.88;0.40;;;;;;;;;;4158373;28;20064;-36
2021/11/12 07:19:49;;;;;;;1.08;0.40;;;;;;;;;;4167106;28;20060;-36
2021/11/12 07:21:52;;;;;;;2.05;0.50;;;;;;;;;;4145175;28;20054;-31
2021/11/12 07:23:54;;;;;;;1.20;0.50;;;;;;;;;;4165909;28;20060;-36
2021/11/12 07:25:56;;;;;;;4.05;0.63;;;;;;;;;;4164673;28;20102;-32
2021/11/12 07:27:57;;;;;;;1.25;0.60;;;;;;;;;;4169942;28;20449;-35
2021/11/12 07:29:58;;;;;;;3.22;0.40;;;;;;;;;;4166891;28;20108;-33
2021/11/12 07:31:59;;;;;;;2.05;0.60;;;;;;;;;;4165321;28;20130;-38
2021/11/12 07:34:01;;;;;;;1.60;0.40;;;;;;;;;;4167423;28;20053;-32
2021/11/12 07:36:11;;;;;;;5.10;0.55;;;;;;;;;;4166396;28;20083;-32
2021/11/12 07:38:15;;;;;;;;;;;;;;;;;;4164842;28;20123;-32
2021/11/12 07:40:26;;;;;;;2.40;0.50;;;;;;;;;;4164228;28;20435;-34
2021/11/12 07:42:34;;;;;;;1.50;0.60;;;;;;;;;;4169428;28;20470;-35
2021/11/12 07:45:01;;;;;;;2.15;0.30;;;;;;;;;;4172399;28;20061;-36
2021/11/12 07:47:10;;;;;;;0.98;0.40;;;;;;;;;;4165889;28;20110;-36
2021/11/12 07:49:13;;;;;;;1.80;0.50;;;;;;;;;;4167743;28;20144;-41
2021/11/12 07:51:14;;;;;;;2.47;0.40;;;;;;;;;;4161037;28;20088;-38
2021/11/12 07:53:15;;;;;;;2.88;0.63;;;;;;;;;;4166456;28;20083;-35
2021/11/12 07:55:17;;;;;;;2.65;0.30;;;;;;;;;;4167326;28;20071;-34
2021/11/12 07:57:18;;;;;;;0.52;0.40;;;;;;;;;;4171903;28;20385;-33
2021/11/12 07:59:20;;;;;;;2.33;0.65;;;;;;;;;;4162082;28;20049;-33
2021/11/12 08:01:21;;;;;;;2.10;0.50;;;;;;;;;;4160807;28;20060;-33
2021/11/12 08:03:22;;;;;;;1.05;0.50;;;;;;;;;;4152260;28;20402;-33
2021/11/12 08:05:28;;;;;;;0.70;0.40;;;;;;;;;;4159582;28;20053;-36
2021/11/12 08:07:32;;;;;;;2.88;0.80;;;;;;;;;;4165640;28;20057;-37
2021/11/12 08:10:07;;;;;;;1.58;0.40;;;;;;;;;;4164992;28;20057;-33
2021/11/12 08:12:06;;;;;;;1.58;0.85;;;;;;;;;;4167285;28;20069;-32
2021/11/12 08:14:11;;;;;;;1.48;0.75;;;;;;;;;;4171813;28;20111;-32
2021/11/12 08:20:42;;;;;;;1.65;0.40;;;;;;;;;;4162861;28;20061;-33
2021/11/12 08:24:53;;;;;;;2.10;0.52;;;;;;;;;;4173909;28;20126;-31
2021/11/12 08:31:28;;;;;;;0.63;0.30;;;;;;;;;;4157299;28;20057;-32
2021/11/12 08:33:44;;;;;;;1.42;0.60;;;;;;;;;;4170448;28;20060;-32
2021/11/12 08:38:02;;;;;;;4.88;0.70;;;;;;;;;;4167963;28;20053;-33
2021/11/12 08:40:25;;;;;;;2.20;0.57;;;;;;;;;;4169756;28;20053;-34
2021/11/12 08:42:33;;;;;;;1.58;0.70;;;;;;;;;;4161976;28;20409;-33
2021/11/12 08:45:20;;;;;;;3.42;0.60;;;;;;;;;;4165583;28;20067;-35
2021/11/12 08:47:12;;;;;;;4.45;1.15;;;;;;;;;;4154777;28;20056;-41
2021/11/12 08:49:18;;;;;;;4.85;1.02;;;;;;;;;;4166121;28;20053;-33
2021/11/12 08:51:20;;;;;;;5.60;0.90;;;;;;;;;;4154975;28;20068;-38
2021/11/12 08:53:21;;;;;;;4.00;0.88;;;;;;;;;;4172262;28;20111;-35
2021/11/12 08:55:26;;;;;;;1.60;0.80;;;;;;;;;;4167853;28;20091;-32
2021/11/12 08:57:27;;;;;;;2.70;1.10;;;;;;;;;;4171378;28;20501;-38
2021/11/12 08:59:29;;;;;;;1.98;0.93;;;;;;;;;;4166037;28;20151;-32
2021/11/12 09:01:30;;;;;;;3.75;0.90;;;;;;;;;;4160564;28;20422;-33
2021/11/12 09:03:31;;;;;;;3.58;0.95;;;;;;;;;;4167458;28;20740;-33
2021/11/12 09:05:32;;;;;;;2.58;0.70;;;;;;;;;;4163380;28;20057;-34
2021/11/12 09:07:33;;;;;;;1.67;1.00;;;;;;;;;;4167105;28;20091;-34
2021/11/12 09:09:36;;;;;;;2.80;0.90;;;;;;;;;;4163166;28;20060;-35
2021/11/12 09:11:39;;;;;;;4.22;0.95;;;;;;;;;;4163225;28;20123;-33
2021/11/12 09:13:45;;;;;;;3.50;0.90;;;;;;;;;;4167607;28;20060;-34
2021/11/12 09:15:55;;;;;;;2.70;0.60;;;;;;;;;;4165665;28;20068;-37
2021/11/12 09:17:59;;;;;;;3.58;0.82;;;;;;;;;;4171093;28;20061;-32
2021/11/12 09:20:01;;;;;;;5.55;0.90;;;;;;;;;;4160591;28;20057;-31
2021/11/12 09:22:02;;;;;;;2.90;0.60;;;;;;;;;;4167279;28;20057;-33
2021/11/12 09:24:04;;;;;;;7.57;1.52;;;;;;;;;;4164427;28;20294;-34
2021/11/12 09:26:05;;;;;;;2.88;1.00;;;;;;;;;;4169911;28;20053;-35
2021/11/12 09:28:06;;;;;;;1.92;0.57;;;;;;;;;;4170330;28;20045;-34
2021/11/12 09:30:10;;;;;;;1.48;0.68;;;;;;;;;;4169572;28;20060;-32
2021/11/12 09:32:11;;;;;;;7.43;1.00;;;;;;;;;;4166128;28;20052;-32
2021/11/12 09:34:14;;;;;;;0.82;0.40;;;;;;;;;;4154935;28;20402;-34
2021/11/12 09:36:15;;;;;;;1.05;0.50;;;;;;;;;;4155485;28;20128;-33
2021/11/12 09:38:16;;;;;;;4.15;0.85;;;;;;;;;;4164460;28;20041;-35
2021/11/12 09:40:18;;;;;;;5.75;0.82;;;;;;;;;;4168712;28;20087;-33
2021/11/12 09:42:22;;;;;;;4.00;0.90;;;;;;;;;;4171946;28;20060;-32
2021/11/12 09:44:23;;;;;;;6.57;1.40;;;;;;;;;;4162915;28;20469;-36
2021/11/12 09:46:24;;;;;;;3.88;1.50;;;;;;;;;;4151612;28;20181;-31
2021/11/12 09:48:25;;;;;;;10.73;1.67;;;;;;;;;;4150841;28;20062;-35
2021/11/12 09:50:30;;;;;;;2.78;1.17;;;;;;;;;;4164277;28;20118;-32
2021/11/12 09:52:31;;;;;;;3.63;1.30;;;;;;;;;;4160532;28;20053;-35
2021/11/12 09:54:34;;;;;;;4.78;1.30;;;;;;;;;;4146920;28;20542;-35
2021/11/12 09:56:35;;;;;;;5.47;1.88;;;;;;;;;;4166503;28;20335;-40
2021/11/12 09:58:38;;;;;;;4.10;1.50;;;;;;;;;;4167879;28;20104;-36
2021/11/12 10:00:40;;;;;;;3.80;1.90;;;;;;;;;;4168174;28;20057;-31
2021/11/12 10:02:44;;;;;;;7.75;1.80;;;;;;;;;;4168981;28;20111;-37
2021/11/12 10:04:46;;;;;;;6.18;1.70;;;;;;;;;;4167494;28;20076;-34
2021/11/12 10:06:48;;;;;;;6.65;1.80;;;;;;;;;;4163687;28;20061;-35
2021/11/12 10:08:50;;;;;;;5.78;2.28;;;;;;;;;;4162177;28;20091;-35
2021/11/12 10:10:59;;;;;;;5.90;1.60;;;;;;;;;;4167965;28;20095;-37
2021/11/12 10:13:00;;;;;;;6.85;2.30;;;;;;;;;;4166602;28;20079;-38
2021/11/12 10:15:12;;;;;;;6.50;2.13;;;;;;;;;;4150444;28;20470;-36
2021/11/12 10:17:13;;;;;;;6.20;1.98;;;;;;;;;;4163918;28;20559;-36
2021/11/12 10:19:19;;;;;;;3.83;1.60;;;;;;;;;;4164724;28;20566;-37
2021/11/12 10:21:26;;;;;;;7.53;2.03;;;;;;;;;;4166344;28;20134;-34
2021/11/12 10:23:32;;;;;;;10.25;1.67;;;;;;;;;;4163963;28;20493;-34
2021/11/12 10:25:33;;;;;;;3.78;1.65;;;;;;;;;;4154146;28;20151;-31
2021/11/12 10:27:36;;;;;;;4.90;1.40;;;;;;;;;;4169805;28;20565;-34
2021/11/12 10:29:45;;;;;;;5.55;1.58;;;;;;;;;;4145890;28;20062;-32
2021/11/12 10:31:49;;;;;;;5.00;1.65;;;;;;;;;;4160999;28;20072;-36
2021/11/12 10:33:52;;;;;;;4.30;1.38;;;;;;;;;;4166030;28;20127;-33
2021/11/12 10:35:53;;;;;;;4.20;1.38;;;;;;;;;;4162715;28;20099;-36
2021/11/12 10:38:06;;;;;;;5.15;1.23;;;;;;;;;;4149291;28;20049;-37
2021/11/12 10:40:11;;;;;;;4.22;1.33;;;;;;;;;;4160187;28;20065;-35
2021/11/12 10:42:17;;;;;;;5.30;1.55;;;;;;;;;;4169976;28;20045;-33
2021/11/12 10:44:18;;;;;;;4.97;1.35;;;;;;;;;;4169422;28;20054;-32
2021/11/12 10:46:42;;;;;;;1.42;0.90;;;;;;;;;;4172579;28;20049;-37
2021/11/12 10:48:46;;;;;;;3.10;1.10;;;;;;;;;;4171004;28;20052;-33
2021/11/12 10:50:47;;;;;;;3.85;1.15;;;;;;;;;;4165769;28;20053;-32
2021/11/12 10:52:51;;;;;;;4.93;0.93;;;;;;;;;;4158318;28;20114;-33
2021/11/12 10:54:56;;;;;;;3.05;1.35;;;;;;;;;;4167956;28;20061;-36
2021/11/12 10:56:57;;;;;;;3.10;1.13;;;;;;;;;;4166126;28;20104;-34
2021/11/12 10:59:05;;;;;;;6.82;0.80;;;;;;;;;;4164103;28;20061;-32
2021/11/12 11:01:12;;;;;;;4.40;0.77;;;;;;;;;;4152615;28;20539;-38
2021/11/12 11:03:21;;;;;;;4.25;0.70;;;;;;;;;;4166836;28;20053;-35
2021/11/12 11:05:25;;;;;;;6.05;0.90;;;;;;;;;;4161504;28;20519;-35
2021/11/12 11:07:27;;;;;;;4.53;0.80;;;;;;;;;;4167754;28;20061;-33
2021/11/12 11:09:37;;;;;;;2.00;0.90;;;;;;;;;;4156274;28;20388;-37
2021/11/12 11:11:41;;;;;;;2.03;0.93;;;;;;;;;;4161753;28;20485;-33
2021/11/12 11:13:44;;;;;;;3.35;0.75;;;;;;;;;;4165305;28;20586;-37
2021/11/12 11:15:51;;;;;;;3.58;0.80;;;;;;;;;;4161773;28;20095;-32
2021/11/12 11:18:06;;;;;;;5.65;1.20;;;;;;;;;;4166113;28;20061;-35
2021/11/12 11:20:15;;;;;;;4.50;0.82;;;;;;;;;;4167436;28;20060;-32
2021/11/12 11:22:17;;;;;;;3.25;1.15;;;;;;;;;;4151866;28;20553;-33
2021/11/12 11:24:31;;;;;;;5.30;0.85;;;;;;;;;;4165578;28;20104;-34
2021/11/12 11:26:47;;;;;;;3.92;0.90;;;;;;;;;;4132815;28;20628;-33
2021/11/12 11:28:51;;;;;;;4.55;0.93;;;;;;;;;;4155011;28;20067;-38
2021/11/12 11:30:52;;;;;;;7.43;1.20;;;;;;;;;;4161780;28;20053;-36
2021/11/12 11:32:54;;;;;;;5.07;1.00;;;;;;;;;;4170392;28;20061;-37
2021/11/12 11:34:56;;;;;;;7.55;1.10;;;;;;;;;;4163751;28;20064;-34
2021/11/12 11:37:03;;;;;;;6.00;1.27;;;;;;;;;;4162786;28;20061;-32
2021/11/12 11:39:07;;;;;;;4.25;1.48;;;;;;;;;;4164789;28;20257;-32
2021/11/12 11:41:10;;;;;;;7.53;1.33;;;;;;;;;;4164570;28;20056;-35
2021/11/12 11:43:13;;;;;;;9.32;1.35;;;;;;;;;;4164404;28;20061;-35
2021/11/12 11:45:15;;;;;;;5.10;0.85;;;;;;;;;;4160810;28;20463;-37
2021/11/12 11:47:20;;;;;;;5.90;0.80;;;;;;;;;;4163927;28;20057;-34
2021/11/12 11:49:23;;;;;;;4.95;1.58;;;;;;;;;;4164043;28;20102;-33
2021/11/12 11:51:27;;;;;;;2.78;0.98;;;;;;;;;;4166333;28;20622;-36
2021/11/12 11:53:32;;;;;;;3.80;0.70;;;;;;;;;;4163619;28;20054;-33
2021/11/12 11:55:36;;;;;;;6.28;0.95;;;;;;;;;;4135614;28;20215;-35
2021/11/12 11:57:37;;;;;;;9.10;1.05;;;;;;;;;;4164247;28;20055;-37
2021/11/12 11:59:40;;;;;;;6.57;1.08;;;;;;;;;;4151361;28;20141;-40
2021/11/12 12:01:46;;;;;;;7.95;1.10;;;;;;;;;;4156560;28;20552;-33
2021/11/12 12:04:14;;;;;;;6.18;1.33;;;;;;;;;;4165166;28;20061;-38
2021/11/12 12:06:20;;;;;;;5.38;0.63;;;;;;;;;;4137939;28;20541;-31
2021/11/12 12:08:27;;;;;;;5.13;1.00;;;;;;;;;;4157297;28;20454;-32
2021/11/12 12:10:29;;;;;;;8.35;0.90;;;;;;;;;;4167020;28;20049;-38
2021/11/12 12:12:30;;;;;;;8.00;0.95;;;;;;;;;;4164858;28;20197;-34
2021/11/12 12:14:34;;;;;;;2.53;0.70;;;;;;;;;;4168886;28;20110;-33
2021/11/12 12:16:38;;;;;;;5.38;1.00;;;;;;;;;;4163270;28;20053;-34
2021/11/12 12:18:47;;;;;;;6.28;0.82;;;;;;;;;;4165004;28;20057;-38
2021/11/12 12:21:28;;;;;;;4.97;0.68;;;;;;;;;;4151977;28;20538;-33
2021/11/12 12:35:22;;;;;;;5.18;0.85;;;;;;;;;;4145831;28;20124;-34
2021/11/12 13:23:34;;;;;;;1.38;0.50;;;;;;;;;;4139488;28;20057;-40
2021/11/12 13:25:50;;;;;;;1.88;0.50;;;;;;;;;;4129544;28;20375;-38
2021/11/12 13:28:33;;;;;;;2.17;0.80;;;;;;;;;;4132732;28;20112;-36
2021/11/12 13:30:35;;;;;;;1.55;0.43;;;;;;;;;;4118247;28;20053;-33
2021/11/12 13:32:38;;;;;;;2.67;0.47;;;;;;;;;;4144201;28;21974;-36
2021/11/12 13:34:44;;;;;;;2.95;0.40;;;;;;;;;;4147373;28;20061;-39
2021/11/12 13:36:45;;;;;;;3.60;0.73;;;;;;;;;;4137728;28;20042;-37
2021/11/12 13:39:03;;;;;;;2.67;0.60;;;;;;;;;;4144403;28;20159;-35
2021/11/12 13:41:07;;;;;;;4.72;0.30;;;;;;;;;;4141433;28;20065;-38
2021/11/12 13:43:09;;;;;;;3.03;0.60;;;;;;;;;;4145966;28;20069;-36
2021/11/12 13:45:24;;;;;;;1.83;0.45;;;;;;;;;;4146203;28;20635;-31
2021/11/12 13:47:25;;;;;;;3.05;0.40;;;;;;;;;;4145779;28;20414;-40
2021/11/12 13:49:32;;;;;;;4.82;0.65;;;;;;;;;;4148560;28;20057;-34
2021/11/12 13:51:33;;;;;;;2.00;0.30;;;;;;;;;;4149957;28;20057;-34
2021/11/12 13:53:34;;;;;;;3.80;0.73;;;;;;;;;;4151371;28;20156;-34
2021/11/12 13:55:38;;;;;;;2.95;0.73;;;;;;;;;;4130298;28;20650;-35
2021/11/12 13:57:45;;;;;;;4.38;0.68;;;;;;;;;;4138269;28;20139;-39
2021/11/12 13:59:51;;;;;;;3.30;0.70;;;;;;;;;;4129350;28;20062;-34
2021/11/12 14:02:03;;;;;;;1.25;0.50;;;;;;;;;;4143885;28;20372;-34
2021/11/12 14:04:20;;;;;;;3.58;0.68;;;;;;;;;;4145262;28;20060;-35
2021/11/12 14:06:32;;;;;;;1.92;0.30;;;;;;;;;;4141369;28;20058;-35
2021/11/12 14:08:42;;;;;;;7.10;0.55;;;;;;;;;;4154530;28;20592;-38
2021/11/12 14:10:46;;;;;;;2.75;0.65;;;;;;;;;;4145357;28;20057;-35
2021/11/12 14:13:02;;;;;;;2.38;0.50;;;;;;;;;;4148399;28;20524;-32
2021/11/12 14:15:06;;;;;;;2.17;0.77;;;;;;;;;;4145303;28;20053;-37
2021/11/12 14:17:19;;;;;;;1.05;0.30;;;;;;;;;;4144617;28;20057;-35
2021/11/12 14:21:52;;;;;;;2.05;0.40;;;;;;;;;;4160103;28;20056;-38
2021/11/12 14:24:06;;;;;;;2.53;0.85;;;;;;;;;;4161738;28;20283;-40
2021/11/12 14:26:22;;;;;;;1.90;0.57;;;;;;;;;;4155053;28;20458;-35
2021/11/12 14:28:54;;;;;;;1.10;0.60;;;;;;;;;;4162143;28;20461;-34
2021/11/12 14:31:05;;;;;;;2.88;0.50;;;;;;;;;;4157870;28;20590;-37
2021/11/12 14:33:23;;;;;;;1.77;0.40;;;;;;;;;;4162308;28;20121;-35
2021/11/12 14:40:08;;;;;;;0.95;0.50;;;;;;;;;;4143868;28;20057;-35
2021/11/12 14:48:30;;;;;;;3.55;0.60;;;;;;;;;;4166631;28;20062;-32
2021/11/12 14:55:41;;;;;;;5.13;0.70;;;;;;;;;;4157937;28;20059;-34
2021/11/12 14:57:43;;;;;;;3.47;0.30;;;;;;;;;;4160912;28;20494;-36
2021/11/12 14:59:45;;;;;;;0.75;0.30;;;;;;;;;;4168119;28;20061;-39
2021/11/12 15:01:46;;;;;;;0.70;0.30;;;;;;;;;;4167270;28;20457;-38
2021/11/12 15:03:49;;;;;;;4.18;0.75;;;;;;;;;;4168546;28;20061;-35
2021/11/12 15:05:51;;;;;;;3.45;0.70;;;;;;;;;;4165548;28;20053;-31
2021/11/12 15:10:27;;;;;;;3.33;0.63;;;;;;;;;;4147175;28;20057;-37
2021/11/12 15:12:28;;;;;;;2.53;0.65;;;;;;;;;;4165233;28;20048;-43
2021/11/12 15:14:33;;;;;;;2.10;0.70;;;;;;;;;;4148436;28;20042;-39
2021/11/12 15:16:37;;;;;;;1.33;0.50;;;;;;;;;;4169398;28;20102;-36
2021/11/12 15:18:38;;;;;;;1.02;0.57;;;;;;;;;;4167510;28;20122;-34
2021/11/12 15:20:40;;;;;;;0.77;0.50;;;;;;;;;;4171704;28;20076;-36
2021/11/12 15:25:18;;;;;;;5.78;0.73;;;;;;;;;;4145750;28;20061;-36
2021/11/12 15:27:31;;;;;;;1.58;0.38;;;;;;;;;;4171816;28;20065;-34
2021/11/12 15:29:42;;;;;;;1.45;0.50;;;;;;;;;;4173095;28;20053;-36
2021/11/12 15:31:58;;;;;;;1.85;0.60;;;;;;;;;;4171801;28;20067;-38
2021/11/12 15:34:03;;;;;;;1.08;0.50;;;;;;;;;;4157485;28;20107;-32
2021/11/12 15:36:08;;;;;;;2.38;0.40;;;;;;;;;;4157586;28;20053;-35
2021/11/12 15:38:28;;;;;;;0.75;0.40;;;;;;;;;;4171761;28;20049;-39
2021/11/12 15:45:00;;;;;;;1.02;0.47;;;;;;;;;;4167303;28;20060;-36
2021/11/12 15:47:08;;;;;;;3.60;0.68;;;;;;;;;;4169251;28;20109;-34
2021/11/12 15:49:10;;;;;;;0.82;0.40;;;;;;;;;;4172544;28;20057;-34
2021/11/12 15:51:29;;;;;;;1.50;0.55;;;;;;;;;;4183252;28;20549;-38
2021/11/12 15:58:01;;;;;;;0.82;0.40;;;;;;;;;;4175926;28;20562;-38
2021/11/12 16:00:31;;;;;;;0.77;0.30;;;;;;;;;;4173373;28;20056;-36
2021/11/12 16:07:17;;;;;;;0.60;0.43;;;;;;;;;;4157945;28;20057;-36
2021/11/12 16:09:33;;;;;;;1.38;0.40;;;;;;;;;;4176937;28;20107;-37
2021/11/12 16:13:42;;;;;;;3.00;0.50;;;;;;;;;;4179402;28;20056;-38
2021/11/12 16:18:50;;;;;;;0.93;0.30;;;;;;;;;;4176159;28;20060;-36
2021/11/12 16:20:43;;;;;;;0.95;0.47;;;;;;;;;;4175483;28;20053;-39
2021/11/12 16:25:17;;;;;;;;;;;;;;;;;;4174606;28;20378;-35
2021/11/12 16:27:19;;;;;;;1.27;0.57;;;;;;;;;;4179745;28;19928;-37
2021/11/12 16:31:22;;;;;;;0.52;0.40;;;;;;;;;;4179531;28;20057;-36
2021/11/12 16:33:25;;;;;;;1.00;0.40;;;;;;;;;;4177803;28;20057;-38
2021/11/12 16:35:30;;;;;;;0.95;0.20;;;;;;;;;;4160459;28;20418;-35
2021/11/12 16:37:32;;;;;;;1.83;0.45;;;;;;;;;;4177999;28;20057;-36
2021/11/12 16:42:20;;;;;;;1.60;0.40;;;;;;;;;;4099858;28;20063;-33
2021/11/12 16:44:30;;;;;;;1.67;0.60;;;;;;;;;;4148454;28;20457;-34
2021/11/12 16:48:54;;;;;;;0.65;0.40;;;;;;;;;;4175604;28;20445;-36
2021/11/12 16:55:47;;;;;;;1.48;0.85;;;;;;;;;;4165699;28;20452;-34
2021/11/12 16:58:33;;;;;;;1.10;0.50;;;;;;;;;;4182178;28;20060;-33
2021/11/12 17:02:39;;;;;;;1.13;0.80;;;;;;;;;;4171801;28;20060;-33
2021/11/12 17:04:57;;;;;;;1.60;0.52;;;;;;;;;;4177512;28;20071;-35
2021/11/12 17:09:34;;;;;;;;;;;;;;;;;;4168127;28;20065;-32
2021/11/12 17:11:41;;;;;;;0.90;0.50;;;;;;;;;;4166703;28;19921;-34
2021/11/12 17:48:08;;;;;;;0.70;0.50;;;;;;;;;;4173468;28;20098;-33
2021/11/12 18:03:37;;;;;;;2.00;0.55;;;;;;;;;;4180535;28;20053;-35
2021/11/12 18:05:45;;;;;;;1.10;0.50;;;;;;;;;;4180709;28;20433;-33
2021/11/12 21:43:50;;;;;;;1.75;0.22;;;;;;;;;;4180618;28;20103;-36
2021/11/12 21:47:55;;;;;;;0.32;0.25;;;;;;;;;;4172680;28;20054;-33
2021/11/12 21:49:56;;;;;;;0.60;0.20;;;;;;;;;;4175193;28;20095;-35
2021/11/12 21:51:58;;;;;;;0.65;0.30;;;;;;;;;;4180787;28;20118;-33
2021/11/12 21:54:03;;;;;;;0.63;0.25;;;;;;;;;;4165892;28;20068;-36
2021/11/12 21:56:05;;;;;;;0.30;0.20;;;;;;;;;;4180740;28;20115;-32
2021/11/12 21:58:06;;;;;;;0.30;0.30;;;;;;;;;;4180551;28;20057;-32
2021/11/12 22:00:09;;;;;;;0.47;0.25;;;;;;;;;;4179930;28;20064;-32
2021/11/12 22:02:18;;;;;;;0.60;0.35;;;;;;;;;;4163904;28;20053;-31
2021/11/12 22:04:20;;;;;;;0.32;0.20;;;;;;;;;;4162829;28;20052;-34
2021/11/12 22:06:22;;;;;;;0.60;0.30;;;;;;;;;;4180438;28;20393;-34
2021/11/12 22:08:24;;;;;;;1.05;0.43;;;;;;;;;;4180151;28;20496;-32